Time;durP1;ratioP1;P1;durP2;ratioP2;P2;SDS_P1;SDS_P2;PMS_P1;PMS_P2;Temp;Humidity;BMP_temperature;BMP_pressure;BME280_temperature;BME280_humidity;BME280_pressure;Samples;Min_cycle;Max_cycle;Signal;HPM_P1;HPM_P2
2020/12/19 00:00:48;;;;;;;17.95;11.13;;;;;;;2.00;100.00;101115.25;5222867;28;20068;-79
2020/12/19 00:03:18;;;;;;;18.77;11.20;;;;;;;2.44;100.00;101112.13;5221279;28;20191;-78
2020/12/19 00:05:48;;;;;;;17.42;10.75;;;;;;;2.66;100.00;101113.94;5222468;28;20024;-78
2020/12/19 00:08:19;;;;;;;21.40;11.13;;;;;;;2.65;100.00;101117.38;5228809;28;20035;-78
2020/12/19 00:10:49;;;;;;;19.90;11.75;;;;;;;2.76;100.00;101105.41;5226078;28;20498;-78
2020/12/19 00:13:19;;;;;;;23.70;11.80;;;;;;;2.74;100.00;101109.69;5231360;28;20021;-78
2020/12/19 00:15:50;;;;;;;18.05;11.75;;;;;;;2.73;100.00;101107.09;5232041;28;20052;-78
2020/12/19 00:18:20;;;;;;;19.67;11.95;;;;;;;2.76;100.00;101107.09;5234036;28;20037;-78
2020/12/19 00:20:50;;;;;;;21.17;12.50;;;;;;;2.76;100.00;101102.81;5233842;28;20024;-78
2020/12/19 00:23:20;;;;;;;19.10;11.55;;;;;;;2.76;100.00;101102.81;5231580;28;20025;-78
2020/12/19 00:25:51;;;;;;;17.48;11.70;;;;;;;2.67;100.00;101107.06;5230695;28;20060;-78
2020/12/19 00:28:21;;;;;;;20.73;12.40;;;;;;;2.62;100.00;101103.59;5225797;28;20021;-78
2020/12/19 00:30:51;;;;;;;24.80;12.73;;;;;;;2.54;100.00;101100.13;5225811;28;20668;-79
2020/12/19 00:33:22;;;;;;;23.20;13.48;;;;;;;2.49;100.00;101096.66;5224995;28;20382;-79
2020/12/19 00:35:53;;;;;;;29.65;13.13;;;;;;;2.49;100.00;101096.66;5224669;28;20021;-79
2020/12/19 00:38:23;;;;;;;24.40;14.20;;;;;;;2.54;100.00;101094.97;5227045;28;20036;-79
2020/12/19 00:40:53;;;;;;;21.80;13.88;;;;;;;2.55;100.00;101096.69;5232668;28;20479;-78
2020/12/19 00:43:23;;;;;;;26.65;14.43;;;;;;;2.59;100.00;101082.94;5231621;28;20025;-79
2020/12/19 00:45:54;;;;;;;23.85;14.65;;;;;;;2.62;100.00;101080.38;5227282;28;20017;-78
2020/12/19 00:48:24;;;;;;;23.95;14.50;;;;;;;2.64;100.00;101078.66;5232684;28;20040;-78
2020/12/19 00:50:54;;;;;;;23.50;14.85;;;;;;;2.60;100.00;101074.34;5231673;28;20118;-79
2020/12/19 00:53:24;;;;;;;24.10;14.63;;;;;;;2.60;100.00;101070.06;5220946;28;20036;-79
2020/12/19 00:55:55;;;;;;;22.35;14.70;;;;;;;2.60;100.00;101077.81;5227863;28;20100;-78
2020/12/19 00:58:25;;;;;;;24.83;14.02;;;;;;;2.54;100.00;101070.00;5225811;28;20036;-79
2020/12/19 01:00:55;;;;;;;19.80;13.20;;;;;;;2.56;100.00;101070.03;5224629;28;20064;-79
2020/12/19 01:03:25;;;;;;;24.10;13.90;;;;;;;2.48;100.00;101074.31;5224599;28;20612;-78
2020/12/19 01:05:56;;;;;;;20.88;12.80;;;;;;;2.46;100.00;101070.84;5228426;28;20071;-78
2020/12/19 01:08:26;;;;;;;20.48;13.10;;;;;;;2.40;100.00;101075.97;5227683;28;20074;-80
2020/12/19 01:10:56;;;;;;;21.30;12.90;;;;;;;2.34;100.00;101070.78;5223907;28;20621;-78
2020/12/19 01:13:26;;;;;;;21.10;13.55;;;;;;;2.39;100.00;101074.25;5224541;28;20017;-79
2020/12/19 01:15:57;;;;;;;22.30;13.95;;;;;;;2.24;100.00;101074.16;5208287;28;20021;-80
2020/12/19 01:18:27;;;;;;;19.98;13.18;;;;;;;2.07;100.00;101070.63;5235775;28;20628;-79
2020/12/19 01:20:57;;;;;;;22.50;14.07;;;;;;;2.08;100.00;101062.03;5204096;28;20048;-80
2020/12/19 01:23:28;;;;;;;23.92;14.65;;;;;;;2.21;100.00;101076.72;5203163;28;20033;-79
2020/12/19 01:26:02;;;;;;;22.52;14.23;;;;;;;2.10;100.00;101076.66;5211220;28;20513;-78
2020/12/19 01:28:32;;;;;;;25.10;14.82;;;;;;;2.23;100.00;101067.28;5227574;28;20027;-78
2020/12/19 01:31:09;;;;;;;23.98;14.98;;;;;;;2.07;100.00;101062.91;5231542;28;20048;-78
2020/12/19 01:33:40;;;;;;;25.08;15.43;;;;;;;2.08;100.00;101065.50;5233505;28;20081;-80
2020/12/19 01:36:12;;;;;;;25.20;15.07;;;;;;;1.96;100.00;101060.25;5232967;28;20055;-79
2020/12/19 01:38:43;;;;;;;26.13;15.32;;;;;;;2.00;100.00;101056.00;5229297;28;20032;-78
2020/12/19 01:41:14;;;;;;;26.02;16.08;;;;;;;1.81;100.00;101061.88;5226178;28;20017;-78
2020/12/19 01:43:51;;;;;;;27.85;16.60;;;;;;;1.84;100.00;101051.59;5228624;28;20029;-79
2020/12/19 01:46:50;;;;;;;25.33;16.08;;;;;;;2.00;100.00;101048.25;5229157;28;20021;-78
2020/12/19 01:49:27;;;;;;;22.92;14.85;;;;;;;1.97;100.00;101048.25;5229368;28;20074;-78
2020/12/19 01:52:01;;;;;;;23.70;14.95;;;;;;;1.81;100.00;101047.25;5229434;28;20066;-79
2020/12/19 01:54:32;;;;;;;27.23;16.17;;;;;;;2.04;100.00;101039.69;5228954;28;20725;-78
2020/12/19 01:57:09;;;;;;;32.00;16.80;;;;;;;2.02;100.00;101036.25;5226456;28;20048;-78
2020/12/19 01:59:39;;;;;;;25.38;16.02;;;;;;;2.00;100.00;101023.34;5224312;28;20056;-78
2020/12/19 02:02:11;;;;;;;26.30;15.65;;;;;;;1.93;100.00;101020.72;5242066;28;20058;-78
2020/12/19 02:04:41;;;;;;;24.05;15.80;;;;;;;2.08;100.00;101029.41;5234616;28;20044;-78
2020/12/19 02:07:11;;;;;;;26.60;16.13;;;;;;;2.06;100.00;101025.09;5229445;28;20064;-78
2020/12/19 02:09:42;;;;;;;23.73;14.75;;;;;;;2.16;100.00;101007.09;5226601;28;20111;-79
2020/12/19 02:12:13;;;;;;;22.90;14.50;;;;;;;2.19;100.00;101014.00;5223773;28;21428;-79
2020/12/19 02:14:43;;;;;;;22.83;14.15;;;;;;;1.92;100.00;101006.97;5228787;28;20036;-79
2020/12/19 02:17:14;;;;;;;23.42;14.60;;;;;;;2.02;100.00;101000.16;5231344;28;20025;-79
2020/12/19 02:19:44;;;;;;;23.10;15.20;;;;;;;2.03;100.00;100991.56;5228221;28;20032;-79
2020/12/19 02:22:14;;;;;;;21.15;12.82;;;;;;;2.22;100.00;100983.06;5220013;28;20066;-79
2020/12/19 02:24:45;;;;;;;18.98;12.27;;;;;;;2.23;100.00;100989.94;5225103;28;20013;-78
2020/12/19 02:27:15;;;;;;;21.90;13.18;;;;;;;2.20;100.00;100974.47;5224599;28;20489;-80
2020/12/19 02:29:45;;;;;;;19.02;12.30;;;;;;;2.11;100.00;100979.56;5222186;28;20039;-79
2020/12/19 02:32:15;;;;;;;19.13;12.98;;;;;;;2.27;100.00;100971.06;5224676;28;20067;-79
2020/12/19 02:34:46;;;;;;;20.35;12.32;;;;;;;2.12;100.00;100976.13;5219391;28;20025;-79
2020/12/19 02:37:16;;;;;;;21.88;13.05;;;;;;;2.16;100.00;100970.16;5222629;28;20017;-80
2020/12/19 02:39:46;;;;;;;22.80;13.45;;;;;;;2.02;100.00;100964.94;5223329;28;20032;-78
2020/12/19 02:42:16;;;;;;;22.85;13.88;;;;;;;2.02;100.00;100966.66;5224469;28;20524;-78
2020/12/19 02:44:47;;;;;;;23.98;13.93;;;;;;;2.07;100.00;100963.25;5224469;28;20063;-78
2020/12/19 02:47:17;;;;;;;20.67;13.18;;;;;;;2.17;100.00;100962.41;5220016;28;20028;-79
2020/12/19 02:49:47;;;;;;;21.02;13.27;;;;;;;2.15;100.00;100965.88;5224526;28;20494;-80
2020/12/19 02:52:17;;;;;;;21.00;13.32;;;;;;;2.01;100.00;100970.09;5226849;28;20411;-80
2020/12/19 02:54:48;;;;;;;18.05;12.70;;;;;;;1.93;100.00;100970.06;5226006;28;20009;-80
2020/12/19 02:57:18;;;;;;;19.17;12.32;;;;;;;2.01;100.00;100968.34;5228397;28;20025;-81
2020/12/19 02:59:48;;;;;;;20.38;12.25;;;;;;;1.97;100.00;100974.34;5228088;28;20104;-80
2020/12/19 03:02:18;;;;;;;19.92;12.00;;;;;;;2.07;100.00;100967.53;5226996;28;20033;-80
2020/12/19 03:04:49;;;;;;;19.67;11.50;;;;;;;2.16;100.00;100967.59;5221532;28;20040;-79
2020/12/19 03:07:19;;;;;;;15.00;10.88;;;;;;;2.02;100.00;100964.06;5221710;28;20424;-78
2020/12/19 03:09:49;;;;;;;18.83;11.10;;;;;;;2.04;100.00;100962.38;5223107;28;20033;-78
2020/12/19 03:12:20;;;;;;;17.88;11.70;;;;;;;2.22;100.00;100954.72;5223300;28;20021;-79
2020/12/19 03:14:50;;;;;;;15.20;10.68;;;;;;;2.34;100.00;100958.19;5222714;28;20097;-78
2020/12/19 03:17:20;;;;;;;16.27;11.02;;;;;;;2.24;100.00;100961.59;5222071;28;20020;-79
2020/12/19 03:19:50;;;;;;;17.45;10.77;;;;;;;2.19;100.00;100965.84;5222788;28;20623;-80
2020/12/19 03:22:21;;;;;;;15.32;10.13;;;;;;;2.03;100.00;100961.50;5224319;28;20025;-79
2020/12/19 03:24:51;;;;;;;16.98;11.10;;;;;;;1.91;100.00;100960.56;5222198;28;20521;-80
2020/12/19 03:27:21;;;;;;;19.25;11.82;;;;;;;1.84;100.00;100964.84;5222972;28;20033;-78
2020/12/19 03:29:51;;;;;;;17.98;11.50;;;;;;;1.86;100.00;100957.97;5223727;28;20059;-78
2020/12/19 03:32:22;;;;;;;17.35;10.52;;;;;;;1.57;100.00;100953.50;5223651;28;20032;-79
2020/12/19 03:34:52;;;;;;;18.70;10.45;;;;;;;1.51;100.00;100950.03;5224635;28;20036;-79
2020/12/19 03:37:22;;;;;;;19.20;10.98;;;;;;;1.42;100.00;100948.25;5226082;28;20036;-78
2020/12/19 03:39:52;;;;;;;16.65;10.43;;;;;;;1.43;100.00;100944.81;5226003;28;20555;-80
2020/12/19 03:42:23;;;;;;;17.20;10.90;;;;;;;1.59;100.00;100946.66;5226927;28;20047;-81
2020/12/19 03:44:53;;;;;;;17.70;11.02;;;;;;;1.50;100.00;100936.31;5227093;28;20032;-80
2020/12/19 03:47:23;;;;;;;18.92;11.52;;;;;;;1.58;100.00;100938.94;5225866;28;20036;-81
2020/12/19 03:49:54;;;;;;;18.17;11.00;;;;;;;1.70;100.00;100945.00;5225794;28;20556;-79
2020/12/19 03:52:24;;;;;;;17.25;10.98;;;;;;;1.50;100.00;100941.47;5227049;28;20455;-79
2020/12/19 03:54:54;;;;;;;17.77;10.98;;;;;;;1.44;100.00;100945.69;5226299;28;20374;-80
2020/12/19 03:57:24;;;;;;;18.50;11.65;;;;;;;1.35;100.00;100941.34;5226630;28;20094;-79
2020/12/19 03:59:55;;;;;;;17.15;11.18;;;;;;;1.26;100.00;100941.28;5225945;28;20025;-79
2020/12/19 04:02:25;;;;;;;19.90;11.85;;;;;;;1.24;100.00;100948.13;5226559;28;20025;-80
2020/12/19 04:04:55;;;;;;;17.55;11.60;;;;;;;1.22;100.00;100952.41;5226856;28;20017;-79
2020/12/19 04:07:26;;;;;;;17.73;11.45;;;;;;;1.17;100.00;100942.91;5228025;28;20383;-78
2020/12/19 04:09:56;;;;;;;19.30;12.20;;;;;;;1.22;100.00;100942.09;5225409;28;20025;-79
2020/12/19 04:12:26;;;;;;;19.90;12.35;;;;;;;1.11;100.00;100943.75;5228055;28;20114;-79
2020/12/19 04:14:57;;;;;;;21.75;12.88;;;;;;;1.16;100.00;100947.22;5225487;28;20383;-80
2020/12/19 04:17:27;;;;;;;21.70;13.48;;;;;;;1.25;100.00;100944.69;5228451;28;20033;-80
2020/12/19 04:19:57;;;;;;;25.80;13.85;;;;;;;1.30;100.00;100952.47;5226307;28;20021;-80
2020/12/19 04:22:28;;;;;;;21.45;13.20;;;;;;;1.43;100.00;100943.97;5226943;28;20020;-78
2020/12/19 04:24:58;;;;;;;22.85;14.27;;;;;;;1.61;100.00;100944.94;5229427;28;20030;-80
2020/12/19 04:27:28;;;;;;;24.17;13.68;;;;;;;1.65;100.00;100938.09;5229709;28;20112;-79
2020/12/19 04:29:59;;;;;;;20.50;13.05;;;;;;;1.77;100.00;100939.03;5229589;28;20074;-79
2020/12/19 04:32:29;;;;;;;21.17;13.52;;;;;;;1.84;100.00;100944.22;5224301;28;20021;-79
2020/12/19 04:34:59;;;;;;;20.08;12.82;;;;;;;1.88;100.00;100945.97;5226091;28;20459;-80
2020/12/19 04:37:30;;;;;;;18.80;12.15;;;;;;;1.90;100.00;100939.13;5226195;28;20040;-80
2020/12/19 04:40:00;;;;;;;18.35;12.52;;;;;;;1.99;100.00;100952.03;5225904;28;20540;-79
2020/12/19 04:42:32;;;;;;;20.45;12.98;;;;;;;2.23;100.00;100946.13;5226338;28;20025;-78
2020/12/19 04:45:04;;;;;;;19.08;11.65;;;;;;;2.46;100.00;100934.16;5218724;28;20074;-81
2020/12/19 04:47:35;;;;;;;17.50;11.57;;;;;;;2.26;100.00;100933.22;5227023;28;20086;-80
2020/12/19 04:50:05;;;;;;;17.10;11.25;;;;;;;2.20;100.00;100934.06;5224988;28;20322;-79
2020/12/19 04:52:36;;;;;;;19.98;12.98;;;;;;;2.19;100.00;100926.34;5226308;28;20032;-80
2020/12/19 04:55:06;;;;;;;19.85;12.77;;;;;;;2.21;100.00;100932.38;5226394;28;20108;-80
2020/12/19 04:57:37;;;;;;;17.58;12.18;;;;;;;2.40;100.00;100931.56;5226543;28;20027;-80
2020/12/19 05:00:07;;;;;;;19.10;12.43;;;;;;;2.19;100.00;100936.66;5224611;28;20025;-79
2020/12/19 05:02:37;;;;;;;20.63;12.45;;;;;;;2.16;100.00;100936.66;5227073;28;20029;-78
2020/12/19 05:05:08;;;;;;;17.95;11.52;;;;;;;2.07;100.00;100936.59;5224873;28;20456;-79
2020/12/19 05:07:38;;;;;;;20.00;12.15;;;;;;;1.97;100.00;100924.56;5226203;28;20033;-81
2020/12/19 05:10:08;;;;;;;21.38;13.63;;;;;;;2.00;100.00;100919.41;5229066;28;20029;-82
2020/12/19 05:12:39;;;;;;;24.25;14.98;;;;;;;2.20;100.00;100917.75;5229208;28;20028;-81
2020/12/19 05:15:09;;;;;;;21.73;14.73;;;;;;;2.26;100.00;100917.75;5227942;28;20086;-79
2020/12/19 05:17:39;;;;;;;22.98;14.43;;;;;;;2.30;100.00;100922.09;5225172;28;20548;-79
2020/12/19 05:20:09;;;;;;;22.25;14.15;;;;;;;2.24;100.00;100920.38;5224938;28;20033;-77
2020/12/19 05:22:40;;;;;;;22.02;13.38;;;;;;;2.40;100.00;100922.13;5224462;28;20163;-79
2020/12/19 05:25:10;;;;;;;24.00;14.73;;;;;;;2.59;100.00;100933.34;5224739;28;20030;-78
2020/12/19 05:27:43;;;;;;;24.95;15.38;;;;;;;2.60;100.00;100930.75;5223276;28;20013;-80
2020/12/19 05:30:15;;;;;;;23.58;14.45;;;;;;;2.65;100.00;100933.38;5225220;28;20091;-80
2020/12/19 05:32:50;;;;;;;22.08;14.27;;;;;;;2.64;100.00;100926.44;5225364;28;20040;-82
2020/12/19 05:35:22;;;;;;;25.17;14.52;;;;;;;2.59;100.00;100925.59;5224244;28;20120;-78
2020/12/19 05:38:04;;;;;;;20.08;13.48;;;;;;;2.63;100.00;100923.03;5223896;28;20082;-79
2020/12/19 05:40:34;;;;;;;20.90;12.30;;;;;;;2.63;100.00;100909.25;5225195;28;20081;-79
2020/12/19 05:43:05;;;;;;;17.85;12.38;;;;;;;2.71;100.00;100925.63;5226009;28;20025;-79
2020/12/19 05:45:35;;;;;;;17.58;12.15;;;;;;;2.55;100.00;100916.13;5226036;28;20027;-78
2020/12/19 05:48:05;;;;;;;19.70;12.75;;;;;;;2.54;100.00;100922.16;5227099;28;20032;-79
2020/12/19 05:50:36;;;;;;;20.98;12.82;;;;;;;2.59;100.00;100920.44;5226976;28;20111;-79
2020/12/19 05:53:07;;;;;;;20.75;13.40;;;;;;;2.57;100.00;100911.84;5228298;28;20074;-82
2020/12/19 05:55:38;;;;;;;21.85;13.73;;;;;;;2.63;100.00;100914.41;5229412;28;20082;-81
2020/12/19 05:58:09;;;;;;;25.60;13.90;;;;;;;2.63;100.00;100907.56;5230053;28;20021;-80
2020/12/19 06:00:39;;;;;;;23.92;13.77;;;;;;;2.60;100.00;100906.69;5225051;28;20035;-80
2020/12/19 06:03:12;;;;;;;25.05;15.13;;;;;;;2.66;100.00;100910.13;5222746;28;20024;-78
2020/12/19 06:05:43;;;;;;;25.67;15.05;;;;;;;2.68;100.00;100897.25;5222867;28;20120;-78
2020/12/19 06:08:20;;;;;;;24.33;15.25;;;;;;;2.60;100.00;100901.50;5223071;28;20580;-77
2020/12/19 06:10:53;;;;;;;27.85;15.75;;;;;;;2.68;100.00;100897.25;5223888;28;20025;-80
2020/12/19 06:13:26;;;;;;;26.92;15.30;;;;;;;2.67;100.00;100904.09;5222942;28;20090;-78
2020/12/19 06:16:05;;;;;;;27.52;14.88;;;;;;;2.64;100.00;100901.53;5221943;28;20025;-79
2020/12/19 06:19:06;;;;;;;21.90;13.82;;;;;;;2.64;100.00;100892.91;5224537;28;20390;-78
2020/12/19 06:21:38;;;;;;;22.98;13.50;;;;;;;2.54;100.00;100893.78;5225469;28;20372;-78
2020/12/19 06:24:08;;;;;;;22.10;13.85;;;;;;;2.49;100.00;100882.59;5223310;28;20096;-79
2020/12/19 06:26:38;;;;;;;25.58;15.52;;;;;;;2.58;100.00;100880.03;5225341;28;20123;-77
2020/12/19 06:29:09;;;;;;;24.40;14.63;;;;;;;2.67;100.00;100874.88;5225552;28;20483;-79
2020/12/19 06:31:39;;;;;;;23.75;14.90;;;;;;;2.77;100.00;100869.72;5226519;28;20029;-80
2020/12/19 06:34:10;;;;;;;26.63;15.68;;;;;;;2.80;100.00;100871.44;5226394;28;20017;-79
2020/12/19 06:36:47;;;;;;;22.10;14.68;;;;;;;2.92;100.00;100864.56;5224869;28;20407;-79
2020/12/19 06:39:17;;;;;;;24.50;14.48;;;;;;;2.97;100.00;100864.53;5226724;28;20025;-79
2020/12/19 06:41:50;;;;;;;24.83;14.02;;;;;;;2.90;100.00;100862.84;5228338;28;20051;-80
2020/12/19 06:44:26;;;;;;;23.73;13.55;;;;;;;2.84;100.00;100857.69;5224270;28;20035;-78
2020/12/19 06:46:58;;;;;;;23.33;13.82;;;;;;;2.85;100.00;100859.41;5223365;28;20025;-79
2020/12/19 06:49:31;;;;;;;23.55;14.75;;;;;;;2.87;100.00;100855.09;5222952;28;20060;-78
2020/12/19 06:52:06;;;;;;;24.15;14.85;;;;;;;2.88;100.00;100859.41;5223207;28;20028;-79
2020/12/19 06:54:41;;;;;;;25.85;15.43;;;;;;;2.97;100.00;100860.25;5222331;28;20024;-79
2020/12/19 06:57:30;;;;;;;23.45;15.23;;;;;;;3.02;100.00;100860.25;5222286;28;20546;-78
2020/12/19 07:00:30;;;;;;;24.85;15.50;;;;;;;3.12;100.00;100857.66;5223012;28;20056;-79
2020/12/19 07:03:02;;;;;;;26.25;14.60;;;;;;;3.11;100.00;100858.53;5223318;28;20544;-79
2020/12/19 07:05:34;;;;;;;28.95;16.33;;;;;;;3.12;100.00;100855.09;5221214;28;20112;-78
2020/12/19 07:08:22;;;;;;;27.40;16.08;;;;;;;3.23;100.00;100860.22;5222926;28;20450;-79
2020/12/19 07:10:52;;;;;;;24.00;15.40;;;;;;;3.21;100.00;100859.38;5224514;28;20036;-81
2020/12/19 07:13:23;;;;;;;27.48;15.70;;;;;;;3.25;100.00;100861.09;5223642;28;20025;-81
2020/12/19 07:15:53;;;;;;;24.25;15.90;;;;;;;3.16;100.00;100861.97;5224433;28;20068;-79
2020/12/19 07:18:32;;;;;;;25.35;14.82;;;;;;;3.32;100.00;100865.38;5224203;28;20104;-81
2020/12/19 07:21:04;;;;;;;24.13;15.57;;;;;;;3.21;100.00;100854.22;5226687;28;20029;-79
2020/12/19 07:23:37;;;;;;;24.65;15.57;;;;;;;3.19;100.00;100856.78;5232499;28;20108;-79
2020/12/19 07:26:07;;;;;;;24.80;15.30;;;;;;;3.21;100.00;100859.38;5234847;28;20048;-81
2020/12/19 07:28:38;;;;;;;24.45;16.55;;;;;;;3.19;100.00;100855.94;5230067;28;20052;-79
2020/12/19 07:31:08;;;;;;;26.00;15.90;;;;;;;3.21;100.00;100854.22;5229712;28;20029;-78
2020/12/19 07:33:39;;;;;;;24.60;15.05;;;;;;;3.25;100.00;100858.50;5229334;28;20021;-78
2020/12/19 07:36:11;;;;;;;27.95;15.98;;;;;;;3.23;100.00;100853.31;5227884;28;20032;-77
2020/12/19 07:38:41;;;;;;;22.77;14.73;;;;;;;3.24;100.00;100865.41;5229086;28;20170;-79
2020/12/19 07:41:16;;;;;;;25.85;15.40;;;;;;;3.24;100.00;100859.38;5226073;28;20140;-79
2020/12/19 07:43:46;;;;;;;27.15;15.98;;;;;;;3.24;100.00;100862.81;5227402;28;20036;-78
2020/12/19 07:46:16;;;;;;;24.88;15.60;;;;;;;3.30;100.00;100860.22;5228825;28;20374;-77
2020/12/19 07:48:53;;;;;;;24.33;15.07;;;;;;;3.41;100.00;100865.34;5229118;28;20060;-77
2020/12/19 07:51:23;;;;;;;30.00;16.05;;;;;;;3.57;100.00;100865.28;5229484;28;20052;-78
2020/12/19 07:53:54;;;;;;;24.10;15.23;;;;;;;3.90;100.00;100860.00;5228141;28;20149;-79
2020/12/19 07:56:25;;;;;;;23.92;15.32;;;;;;;4.28;100.00;100856.38;5228924;28;20021;-78
2020/12/19 07:58:56;;;;;;;19.65;12.75;;;;;;;4.62;100.00;100859.63;5228992;28;20413;-78
2020/12/19 08:01:26;;;;;;;19.60;12.65;;;;;;;5.00;100.00;100845.47;5228755;28;20024;-79
2020/12/19 08:03:59;;;;;;;17.60;11.88;;;;;;;5.37;100.00;100849.44;5227819;28;20033;-79
2020/12/19 08:06:40;;;;;;;16.98;11.70;;;;;;;5.36;100.00;100857.22;5225793;28;20035;-78
2020/12/19 08:09:17;;;;;;;19.42;11.50;;;;;;;5.61;100.00;100846.59;5225851;28;20545;-79
2020/12/19 08:11:49;;;;;;;16.08;10.38;;;;;;;5.77;99.72;100851.56;5226866;28;20112;-80
2020/12/19 08:14:21;;;;;;;17.23;10.73;;;;;;;5.87;99.63;100853.22;5227840;28;20074;-79
2020/12/19 08:16:52;;;;;;;15.02;9.93;;;;;;;5.83;99.07;100855.84;5227705;28;20029;-78
2020/12/19 08:19:29;;;;;;;15.48;10.50;;;;;;;6.16;97.82;100858.03;5228865;28;20044;-79
2020/12/19 08:22:02;;;;;;;15.02;10.30;;;;;;;6.57;96.81;100858.31;5227893;28;20449;-79
2020/12/19 08:24:32;;;;;;;14.55;10.32;;;;;;;6.51;95.45;100858.38;5228643;28;20028;-78
2020/12/19 08:27:27;;;;;;;14.35;9.73;;;;;;;6.98;93.99;100850.72;5228959;28;20040;-79
2020/12/19 08:30:12;;;;;;;11.65;8.80;;;;;;;7.52;92.44;100856.66;5228188;28;20516;-80
2020/12/19 08:32:50;;;;;;;13.60;9.52;;;;;;;7.33;92.24;100854.44;5228083;28;20241;-79
2020/12/19 08:35:24;;;;;;;13.80;9.77;;;;;;;6.70;94.81;100852.03;5224531;28;20025;-79
2020/12/19 08:38:07;;;;;;;15.43;10.48;;;;;;;6.15;98.73;100857.19;5223929;28;20033;-78
2020/12/19 08:40:48;;;;;;;16.33;10.73;;;;;;;5.77;100.00;100851.56;5225538;28;20028;-79
2020/12/19 08:43:19;;;;;;;16.98;11.25;;;;;;;5.48;100.00;100847.59;5219632;28;20066;-79
2020/12/19 08:45:49;;;;;;;19.27;11.85;;;;;;;5.39;100.00;100853.72;5225075;28;20055;-79
2020/12/19 08:48:23;;;;;;;20.08;12.55;;;;;;;5.34;100.00;100849.47;5226079;28;20041;-79
2020/12/19 08:50:54;;;;;;;17.80;12.32;;;;;;;5.37;100.00;100856.34;5225377;28;20048;-79
2020/12/19 08:53:26;;;;;;;22.02;12.98;;;;;;;5.43;100.00;100849.38;5224856;28;20032;-79
2020/12/19 08:55:56;;;;;;;18.15;12.52;;;;;;;5.48;100.00;100850.19;5225320;28;20036;-78
2020/12/19 08:58:31;;;;;;;18.67;13.02;;;;;;;5.53;100.00;100856.16;5225059;28;20616;-79
2020/12/19 09:01:16;;;;;;;19.30;12.73;;;;;;;5.63;100.00;100850.00;5225280;28;20029;-80
2020/12/19 09:03:46;;;;;;;13.85;9.52;;;;;;;5.71;100.00;100856.81;5223043;28;20040;-78
2020/12/19 09:06:16;;;;;;;17.58;11.90;;;;;;;5.80;100.00;100856.78;5224687;28;20013;-78
2020/12/19 09:08:48;;;;;;;18.45;12.93;;;;;;;5.83;100.00;100861.03;5224940;28;20059;-79
2020/12/19 09:11:26;;;;;;;18.65;12.15;;;;;;;5.87;100.00;100868.78;5224392;28;20033;-80
2020/12/19 09:14:05;;;;;;;19.65;12.98;;;;;;;5.91;100.00;100864.41;5222753;28;20091;-79
2020/12/19 09:16:46;;;;;;;19.05;12.43;;;;;;;5.99;100.00;100866.03;5225007;28;20025;-79
2020/12/19 09:19:17;;;;;;;20.27;12.43;;;;;;;6.11;100.00;100862.41;5224824;28;20025;-78
2020/12/19 09:21:59;;;;;;;18.02;12.73;;;;;;;6.18;100.00;100861.44;5224517;28;20109;-78
2020/12/19 09:24:29;;;;;;;17.73;12.27;;;;;;;6.31;100.00;100865.59;5225868;28;20029;-79
2020/12/19 09:27:00;;;;;;;17.50;12.40;;;;;;;6.33;100.00;100863.84;5225034;28;20387;-78
2020/12/19 09:29:30;;;;;;;17.98;11.95;;;;;;;6.42;100.00;100869.75;5223636;28;20021;-79
2020/12/19 09:32:02;;;;;;;20.45;12.20;;;;;;;6.60;100.00;100861.69;5224771;28;20025;-80
2020/12/19 09:34:32;;;;;;;17.63;12.07;;;;;;;6.68;100.00;100854.66;5224381;28;20020;-78
2020/12/19 09:37:02;;;;;;;17.60;11.57;;;;;;;6.78;100.00;100855.38;5224839;28;20028;-79
2020/12/19 09:39:33;;;;;;;17.67;11.57;;;;;;;6.81;100.00;100848.41;5224344;28;20032;-79
2020/12/19 09:42:03;;;;;;;18.13;11.65;;;;;;;6.86;100.00;100845.72;5224841;28;20021;-79
2020/12/19 09:44:33;;;;;;;19.70;12.18;;;;;;;6.91;100.00;100843.91;5221858;28;20021;-79
2020/12/19 09:47:03;;;;;;;17.25;12.07;;;;;;;7.00;100.00;100838.56;5223465;28;20021;-79
2020/12/19 09:49:34;;;;;;;16.27;11.30;;;;;;;7.10;100.00;100832.31;5223798;28;20053;-79
2020/12/19 09:52:04;;;;;;;14.50;10.75;;;;;;;7.26;100.00;100841.56;5222980;28;20502;-79
2020/12/19 09:54:35;;;;;;;16.83;10.77;;;;;;;7.37;100.00;100832.69;5224066;28;20028;-79
2020/12/19 09:57:05;;;;;;;23.33;10.85;;;;;;;7.41;100.00;100829.13;5223732;28;20713;-78
2020/12/19 09:59:35;;;;;;;15.90;10.30;;;;;;;7.54;100.00;100839.25;5223827;28;20411;-78
2020/12/19 10:02:05;;;;;;;15.73;10.38;;;;;;;7.60;100.00;100833.09;5223658;28;20228;-79
2020/12/19 10:04:36;;;;;;;15.65;9.93;;;;;;;7.73;100.00;100830.22;5223234;28;20024;-78
2020/12/19 10:07:06;;;;;;;16.52;10.43;;;;;;;7.89;100.00;100838.59;5221939;28;20012;-78
2020/12/19 10:09:36;;;;;;;14.38;9.98;;;;;;;7.91;100.00;100832.44;5222669;28;20375;-79
2020/12/19 10:12:06;;;;;;;16.05;10.13;;;;;;;7.98;100.00;100822.75;5223808;28;20031;-78
2020/12/19 10:14:37;;;;;;;12.52;9.38;;;;;;;7.98;100.00;100822.75;5222346;28;20028;-80
2020/12/19 10:17:07;;;;;;;15.45;9.65;;;;;;;8.00;100.00;100824.44;5223192;28;20039;-79
2020/12/19 10:19:37;;;;;;;15.65;10.00;;;;;;;8.19;100.00;100824.97;5223076;28;20471;-79
2020/12/19 10:22:08;;;;;;;13.98;8.77;;;;;;;8.19;100.00;100823.19;5220890;28;20037;-78
2020/12/19 10:24:38;;;;;;;13.13;9.60;;;;;;;8.13;100.00;100823.31;5222173;28;20033;-79
2020/12/19 10:27:09;;;;;;;14.98;9.18;;;;;;;8.30;100.00;100821.22;5223424;28;20430;-78
2020/12/19 10:29:40;;;;;;;15.45;9.35;;;;;;;8.35;100.00;100808.13;5223023;28;20028;-79
2020/12/19 10:32:12;;;;;;;14.50;9.13;;;;;;;8.40;100.00;100820.09;5221670;28;20379;-79
2020/12/19 10:34:43;;;;;;;14.57;8.43;;;;;;;8.46;100.00;100812.19;5228202;28;20021;-79
2020/12/19 10:37:13;;;;;;;14.05;8.82;;;;;;;8.54;100.00;100814.59;5221100;28;20029;-79
2020/12/19 10:39:43;;;;;;;13.95;8.98;;;;;;;8.57;100.00;100810.16;5221861;28;20024;-78
2020/12/19 10:42:14;;;;;;;16.02;8.85;;;;;;;8.65;100.00;100807.38;5221230;28;20107;-78
2020/12/19 10:44:44;;;;;;;13.32;8.80;;;;;;;8.76;100.00;100803.59;5219473;28;20160;-79
2020/12/19 10:47:14;;;;;;;13.98;9.10;;;;;;;8.82;100.00;100803.47;5220255;28;20044;-79
2020/12/19 10:49:45;;;;;;;14.95;8.85;;;;;;;8.85;100.00;100803.38;5221549;28;20033;-80
2020/12/19 10:52:15;;;;;;;16.40;8.50;;;;;;;8.87;100.00;100801.59;5223138;28;20100;-79
2020/12/19 10:54:45;;;;;;;13.60;8.38;;;;;;;8.97;100.00;100803.09;5221435;28;20118;-79
2020/12/19 10:57:15;;;;;;;13.93;8.93;;;;;;;9.02;100.00;100801.22;5221771;28;20033;-78
2020/12/19 10:59:46;;;;;;;13.10;8.38;;;;;;;9.01;100.00;100798.63;5221387;28;20112;-80
2020/12/19 11:02:16;;;;;;;12.82;8.50;;;;;;;9.10;100.00;100793.19;5224038;28;20470;-80
2020/12/19 11:04:46;;;;;;;12.15;8.32;;;;;;;9.13;100.00;100787.91;5222384;28;20390;-80
2020/12/19 11:07:16;;;;;;;10.85;8.00;;;;;;;9.16;100.00;100783.47;5222920;28;20031;-78
2020/12/19 11:09:47;;;;;;;12.18;7.97;;;;;;;9.21;100.00;100786.78;5222003;28;20040;-79
2020/12/19 11:12:17;;;;;;;10.60;7.53;;;;;;;9.30;100.00;100786.56;5221046;28;20023;-79
2020/12/19 11:14:47;;;;;;;10.45;7.22;;;;;;;9.39;100.00;100787.16;5221881;28;20056;-79
2020/12/19 11:17:18;;;;;;;9.27;6.93;;;;;;;9.55;100.00;100790.19;5222638;28;20025;-78
2020/12/19 11:19:48;;;;;;;10.90;7.50;;;;;;;9.51;100.00;100785.97;5222302;28;20536;-78
2020/12/19 11:22:18;;;;;;;9.65;6.93;;;;;;;9.52;100.00;100783.31;5223394;28;20055;-78
2020/12/19 11:24:48;;;;;;;12.90;7.80;;;;;;;9.52;100.00;100787.69;5221814;28;20503;-79
2020/12/19 11:27:19;;;;;;;14.35;7.60;;;;;;;9.57;100.00;100791.00;5221428;28;20024;-78
2020/12/19 11:29:49;;;;;;;12.02;7.95;;;;;;;9.62;100.00;100789.16;5222481;28;20025;-80
2020/12/19 11:32:19;;;;;;;12.18;7.55;;;;;;;9.67;100.00;100777.66;5222702;28;20107;-79